Time;durP1;ratioP1;P1;durP2;ratioP2;P2;SDS_P1;SDS_P2;PMS_P1;PMS_P2;Temp;Humidity;BMP_temperature;BMP_pressure;BME280_temperature;BME280_humidity;BME280_pressure;Samples;Min_cycle;Max_cycle;Signal;HPM_P1;HPM_P2
2022/12/19 00:01:01;;;;;;;5.68;2.40;;;;;;;-7.52;72.92;100571.66;5103913;28;20050;-46
2022/12/19 00:03:26;;;;;;;6.28;2.50;;;;;;;-7.71;72.89;100539.56;5107340;28;20069;-48
2022/12/19 00:05:53;;;;;;;5.63;3.15;;;;;;;-7.54;73.07;100576.66;5109299;28;20086;-54
2022/12/19 00:08:19;;;;;;;5.60;2.88;;;;;;;-7.46;73.19;100572.84;5091099;28;20032;-50
2022/12/19 00:10:56;;;;;;;5.00;2.58;;;;;;;-7.34;72.76;100567.56;5090102;28;20504;-52
2022/12/19 00:13:23;;;;;;;6.68;2.83;;;;;;;-7.28;72.71;100570.38;5111149;28;20080;-48
2022/12/19 00:15:49;;;;;;;4.75;2.67;;;;;;;-7.20;72.94;100559.00;5101872;28;20092;-49
2022/12/19 00:18:15;;;;;;;4.60;2.55;;;;;;;-7.13;72.86;100552.59;5090579;28;20048;-49
2022/12/19 00:20:41;;;;;;;4.63;2.13;;;;;;;-7.07;72.84;100546.19;5090194;28;20046;-52
2022/12/19 00:23:07;;;;;;;5.95;2.30;;;;;;;-7.06;72.59;100547.03;5108907;28;20039;-48
2022/12/19 00:25:33;;;;;;;6.13;2.20;;;;;;;-6.96;72.78;100560.19;5089963;28;20779;-50
2022/12/19 00:27:59;;;;;;;7.20;2.70;;;;;;;-6.94;72.91;100557.75;5092457;28;20471;-51
2022/12/19 00:30:25;;;;;;;4.68;2.15;;;;;;;-6.96;72.89;100550.09;5105944;28;20039;-51
2022/12/19 00:32:51;;;;;;;6.32;2.47;;;;;;;-7.02;72.99;100547.28;5061597;28;20036;-51
2022/12/19 00:35:20;;;;;;;4.85;2.65;;;;;;;-7.23;73.27;100513.38;5083135;28;20415;-48
2022/12/19 00:37:46;;;;;;;4.47;2.60;;;;;;;-6.93;73.20;100550.25;5089803;28;20036;-50
2022/12/19 00:40:12;;;;;;;6.63;2.53;;;;;;;-7.12;73.26;100524.91;5097749;28;20044;-52
2022/12/19 00:42:38;;;;;;;4.53;2.38;;;;;;;-6.87;73.33;100559.81;5104299;28;20433;-54
2022/12/19 00:45:05;;;;;;;6.18;2.63;;;;;;;-6.86;73.49;100562.41;5069902;28;20046;-52
2022/12/19 00:47:31;;;;;;;4.97;2.45;;;;;;;-6.91;73.96;100553.72;5103164;28;20400;-49
2022/12/19 00:49:58;;;;;;;6.70;2.97;;;;;;;-7.03;74.02;100527.88;5106537;28;20093;-49
2022/12/19 00:52:24;;;;;;;5.85;2.78;;;;;;;-6.91;74.29;100553.72;5109463;28;20502;-52
2022/12/19 00:54:50;;;;;;;5.00;2.50;;;;;;;-6.89;74.44;100558.84;5090028;28;20032;-51
2022/12/19 00:57:18;;;;;;;6.53;2.95;;;;;;;-6.97;74.60;100550.91;5097845;28;20058;-50
2022/12/19 00:59:44;;;;;;;5.90;2.90;;;;;;;-7.02;75.08;100546.41;5102543;27;20060;-51
2022/12/19 01:02:10;;;;;;;7.13;2.58;;;;;;;-6.97;75.05;100552.56;5107555;28;20511;-50
2022/12/19 01:04:36;;;;;;;5.32;2.55;;;;;;;-7.09;75.22;100557.00;5089055;28;20472;-51
2022/12/19 01:07:04;;;;;;;7.18;3.05;;;;;;;-6.96;75.92;100549.25;5095748;28;20071;-50
2022/12/19 01:09:31;;;;;;;6.60;2.78;;;;;;;-7.28;75.76;100520.75;5092421;28;20730;-53
2022/12/19 01:14:42;;;;;;;5.55;2.55;;;;;;;-7.15;76.45;100544.94;5099924;28;20046;-50
2022/12/19 01:17:08;;;;;;;4.47;1.95;;;;;;;-7.16;76.47;100563.41;5099952;28;20529;-47
2022/12/19 01:19:34;;;;;;;8.07;2.88;;;;;;;-7.20;77.02;100551.41;5104143;28;20043;-51
2022/12/19 01:22:00;;;;;;;7.10;3.03;;;;;;;-7.08;77.47;100552.03;5088947;28;20127;-52
2022/12/19 01:24:25;;;;;;;7.60;2.88;;;;;;;-6.90;77.13;100552.06;5090034;28;20036;-54
2022/12/19 01:26:51;;;;;;;5.43;2.85;;;;;;;-6.75;77.08;100554.47;5097916;28;20116;-52
2022/12/19 01:29:17;;;;;;;6.70;3.17;;;;;;;-6.97;76.98;100547.50;5109064;28;20144;-51
2022/12/19 01:31:43;;;;;;;7.05;3.05;;;;;;;-7.43;77.57;100478.72;5098353;28;20050;-52
2022/12/19 01:34:09;;;;;;;6.75;2.42;;;;;;;-6.88;77.49;100553.00;5071520;28;20239;-51
2022/12/19 01:36:35;;;;;;;6.90;3.05;;;;;;;-6.77;77.43;100539.22;5092908;28;20395;-48
2022/12/19 01:39:01;;;;;;;6.75;3.33;;;;;;;-6.66;77.31;100550.72;5091337;28;20414;-51
2022/12/19 01:41:27;;;;;;;7.30;2.95;;;;;;;-6.74;77.07;100513.22;5104278;28;20044;-51
2022/12/19 01:43:56;;;;;;;7.40;3.28;;;;;;;-6.51;77.02;100550.59;5086348;28;20106;-53
2022/12/19 01:46:26;;;;;;;5.65;2.38;;;;;;;-6.59;76.51;100551.88;5072618;28;20040;-52
2022/12/19 01:48:52;;;;;;;7.47;3.03;;;;;;;-6.59;77.11;100552.75;5072005;28;20039;-48
2022/12/19 01:51:23;;;;;;;7.18;3.63;;;;;;;-6.54;77.31;100541.19;5090911;28;20043;-49
2022/12/19 01:54:01;;;;;;;7.90;3.03;;;;;;;-6.49;77.28;100534.66;5093569;28;20043;-47
2022/12/19 01:56:34;;;;;;;5.50;2.95;;;;;;;-6.87;77.02;100462.09;5092976;28;20035;-50
2022/12/19 01:59:05;;;;;;;7.32;3.17;;;;;;;-6.41;77.29;100527.47;5080935;28;20463;-51
2022/12/19 02:01:31;;;;;;;8.18;3.60;;;;;;;-6.48;77.12;100530.47;5107059;28;20039;-49
2022/12/19 02:03:58;;;;;;;9.20;3.80;;;;;;;-6.73;77.13;100482.97;5107113;28;20043;-52
2022/12/19 02:06:24;;;;;;;9.27;3.78;;;;;;;-6.57;77.34;100525.88;5098047;28;20067;-50
2022/12/19 02:08:50;;;;;;;8.35;3.42;;;;;;;-6.57;77.88;100532.59;5091075;28;20124;-51
2022/12/19 02:11:16;;;;;;;10.73;3.42;;;;;;;-6.63;77.55;100507.88;5105961;28;20042;-51
2022/12/19 02:13:43;;;;;;;8.77;3.47;;;;;;;-6.58;78.13;100511.50;5104598;28;20043;-49
2022/12/19 02:16:12;;;;;;;10.80;3.95;;;;;;;-6.57;78.37;100525.00;5104796;28;20173;-52
2022/12/19 02:18:41;;;;;;;11.90;3.35;;;;;;;-6.46;78.17;100521.31;5103589;28;20039;-50
2022/12/19 02:21:17;;;;;;;7.72;3.15;;;;;;;-6.47;77.99;100512.00;5096615;28;20048;-49
2022/12/19 02:24:08;;;;;;;7.13;2.97;;;;;;;-6.44;78.27;100518.03;5086896;28;20174;-50
2022/12/19 02:26:58;;;;;;;8.52;3.70;;;;;;;-6.55;78.05;100515.84;5098033;28;20094;-52
2022/12/19 02:29:57;;;;;;;8.68;4.03;;;;;;;-6.51;78.14;100510.13;5090154;28;20039;-48
2022/12/19 02:32:26;;;;;;;7.33;3.57;;;;;;;-6.52;77.96;100506.72;5067583;28;20712;-50
2022/12/19 02:34:56;;;;;;;11.57;4.00;;;;;;;-6.59;78.17;100506.34;5083948;28;20464;-49
2022/12/19 02:37:29;;;;;;;8.82;3.65;;;;;;;-6.60;78.45;100509.69;5099871;28;20051;-48
2022/12/19 02:40:10;;;;;;;8.43;3.67;;;;;;;-6.66;78.34;100507.75;5074007;28;20557;-51
2022/12/19 02:42:40;;;;;;;8.73;3.53;;;;;;;-6.81;78.44;100496.91;5087646;28;20080;-49
2022/12/19 02:45:09;;;;;;;10.45;4.25;;;;;;;-6.92;79.28;100500.59;5070085;28;20093;-50
2022/12/19 02:47:36;;;;;;;11.85;4.80;;;;;;;-6.93;79.42;100492.13;5116299;27;20039;-50
2022/12/19 02:50:04;;;;;;;7.60;3.40;;;;;;;-6.90;79.48;100492.25;5070688;28;20040;-48
2022/12/19 02:52:30;;;;;;;7.15;3.38;;;;;;;-6.96;79.61;100483.56;5103335;28;20090;-49
2022/12/19 02:55:00;;;;;;;7.40;3.55;;;;;;;-6.96;79.75;100473.44;5092897;28;20036;-48
2022/12/19 02:57:35;;;;;;;15.98;4.57;;;;;;;-7.14;80.18;100445.63;5073144;28;20526;-51
2022/12/19 03:00:09;;;;;;;11.07;4.32;;;;;;;-7.03;79.91;100441.09;5073618;28;20522;-49
2022/12/19 03:03:09;;;;;;;11.70;4.57;;;;;;;-6.79;79.72;100467.50;5106099;28;20049;-51
2022/12/19 03:05:38;;;;;;;;;;;;;;;-6.81;79.72;100483.41;5076920;28;20068;-51
2022/12/19 03:08:14;;;;;;;11.57;4.40;;;;;;;-6.87;79.96;100478.94;5091570;28;19922;-49
2022/12/19 03:10:59;;;;;;;10.63;4.35;;;;;;;-6.74;79.77;100465.19;5092293;28;20081;-48
2022/12/19 03:13:36;;;;;;;7.03;3.22;;;;;;;-6.68;79.59;100478.97;5084509;28;20392;-49
2022/12/19 03:16:03;;;;;;;6.70;3.13;;;;;;;-6.73;79.37;100461.88;5090756;28;20461;-47
2022/12/19 03:18:31;;;;;;;11.45;5.20;;;;;;;-6.80;79.66;100459.88;5085726;28;20043;-50
2022/12/19 03:21:12;;;;;;;9.73;3.40;;;;;;;-6.83;79.51;100464.75;5111566;28;20075;-54
2022/12/19 03:23:38;;;;;;;12.00;3.53;;;;;;;-6.81;79.47;100459.00;5112306;28;20275;-52
2022/12/19 03:26:06;;;;;;;6.38;2.70;;;;;;;-6.75;79.52;100463.47;5091065;28;20059;-50
2022/12/19 03:28:40;;;;;;;7.68;3.30;;;;;;;-6.91;79.72;100452.63;5088454;28;20032;-53
2022/12/19 03:31:06;;;;;;;8.00;3.25;;;;;;;-6.90;79.98;100469.53;5082710;28;20051;-50
2022/12/19 03:33:34;;;;;;;8.48;3.60;;;;;;;-6.92;80.31;100468.59;5071653;28;20113;-52
2022/12/19 03:36:03;;;;;;;11.57;3.80;;;;;;;-6.85;80.38;100455.44;5087559;28;20049;-50
2022/12/19 03:38:30;;;;;;;8.45;2.97;;;;;;;-6.83;80.44;100462.22;5070125;28;20036;-49
2022/12/19 03:40:57;;;;;;;6.80;3.53;;;;;;;-6.81;80.32;100451.41;5100592;28;20050;-53
2022/12/19 03:43:25;;;;;;;6.82;2.90;;;;;;;-7.06;79.97;100390.38;5106440;28;20090;-50
2022/12/19 03:46:17;;;;;;;6.10;2.75;;;;;;;-6.66;80.13;100449.59;5102536;28;20035;-52
2022/12/19 03:48:46;;;;;;;9.30;3.55;;;;;;;-6.75;80.41;100438.19;5110034;28;20124;-51
2022/12/19 03:51:12;;;;;;;9.07;2.92;;;;;;;-6.67;80.46;100432.69;5124604;27;20043;-50
2022/12/19 03:53:57;;;;;;;9.13;3.15;;;;;;;-6.85;80.40;100407.41;5093056;28;20040;-51
2022/12/19 03:56:44;;;;;;;9.30;3.10;;;;;;;-6.73;80.87;100421.41;5100455;28;20541;-51
2022/12/19 03:59:19;;;;;;;6.43;3.22;;;;;;;-6.75;80.61;100423.03;5092272;28;20052;-51
2022/12/19 04:01:45;;;;;;;8.35;3.15;;;;;;;-6.75;80.79;100423.03;5087353;28;20772;-49
2022/12/19 04:04:11;;;;;;;10.57;3.25;;;;;;;-6.73;81.13;100418.88;5094691;28;20043;-51
2022/12/19 04:06:39;;;;;;;10.65;3.60;;;;;;;-6.68;80.88;100417.44;5086893;28;20088;-49
2022/12/19 04:09:05;;;;;;;10.82;3.55;;;;;;;-6.71;80.74;100418.19;5089055;28;20039;-53
2022/12/19 04:11:41;;;;;;;8.95;3.28;;;;;;;-6.76;80.99;100418.75;5098584;28;20035;-50
2022/12/19 04:14:10;;;;;;;9.13;3.58;;;;;;;-6.86;81.66;100405.72;5096127;28;20109;-52
2022/12/19 04:16:49;;;;;;;9.02;3.08;;;;;;;-6.91;81.82;100411.34;5125134;27;20032;-47
2022/12/19 04:19:24;;;;;;;6.50;2.57;;;;;;;-6.91;81.74;100404.59;5088148;28;20537;-52
2022/12/19 04:21:59;;;;;;;7.10;3.13;;;;;;;-6.92;82.16;100407.06;5059747;28;20385;-48
2022/12/19 04:24:27;;;;;;;13.13;3.90;;;;;;;-6.86;82.46;100405.72;5069654;28;20135;-50
2022/12/19 04:26:55;;;;;;;6.40;2.60;;;;;;;-6.79;82.50;100406.84;5076665;28;20036;-49
2022/12/19 04:29:22;;;;;;;8.98;3.90;;;;;;;-6.72;82.55;100396.22;5089770;28;20055;-48
2022/12/19 04:31:48;;;;;;;6.25;2.42;;;;;;;-6.62;82.66;100411.00;5090523;28;20486;-52
2022/12/19 04:34:18;;;;;;;10.23;2.88;;;;;;;-6.82;82.42;100385.63;5072667;28;20081;-51
2022/12/19 04:36:44;;;;;;;7.68;3.38;;;;;;;-6.66;83.02;100419.25;5089228;28;20040;-49
2022/12/19 04:39:10;;;;;;;11.13;3.10;;;;;;;-6.56;82.67;100433.19;5100990;28;20124;-52
2022/12/19 04:41:36;;;;;;;5.63;2.45;;;;;;;-6.54;82.74;100434.97;5090286;28;20036;-48
2022/12/19 04:44:02;;;;;;;10.43;3.50;;;;;;;-6.49;82.67;100425.91;5068610;28;20420;-57
2022/12/19 04:46:28;;;;;;;5.60;2.78;;;;;;;-6.47;82.90;100431.91;5068722;28;20109;-50
2022/12/19 04:48:54;;;;;;;6.35;2.13;;;;;;;-6.44;82.56;100433.75;5088821;28;20059;-47
2022/12/19 04:51:20;;;;;;;5.13;2.45;;;;;;;-6.38;82.95;100430.63;5090579;28;20044;-50
2022/12/19 04:53:45;;;;;;;7.50;3.22;;;;;;;-6.39;82.73;100414.56;5097152;28;20035;-49
2022/12/19 04:56:11;;;;;;;7.20;2.85;;;;;;;-6.32;82.65;100415.69;5089447;28;20068;-50
2022/12/19 04:58:37;;;;;;;7.47;3.22;;;;;;;-6.44;82.82;100385.69;5091159;28;20142;-50
2022/12/19 05:01:05;;;;;;;10.98;4.13;;;;;;;-6.23;82.46;100427.09;5103318;28;20039;-50
2022/12/19 05:03:31;;;;;;;9.10;3.38;;;;;;;-6.18;82.57;100427.31;5070207;28;20460;-51
2022/12/19 05:06:11;;;;;;;5.07;2.35;;;;;;;-6.13;82.44;100424.19;5071825;28;20070;-50
2022/12/19 05:08:40;;;;;;;5.80;2.65;;;;;;;-6.31;82.80;100398.06;5088017;28;20052;-52
2022/12/19 05:11:08;;;;;;;6.45;2.63;;;;;;;-6.23;82.76;100422.06;5121429;27;20119;-54
2022/12/19 05:13:34;;;;;;;8.48;3.92;;;;;;;-6.20;82.75;100417.09;5070478;28;20400;-51
2022/12/19 05:16:06;;;;;;;7.72;2.75;;;;;;;-6.19;82.31;100423.91;5086699;28;20127;-51
2022/12/19 05:18:32;;;;;;;8.57;3.33;;;;;;;-6.25;82.31;100431.22;5088177;28;20465;-54
2022/12/19 05:20:58;;;;;;;11.25;3.63;;;;;;;-6.29;82.75;100409.13;5088357;28;20058;-50
2022/12/19 05:23:24;;;;;;;9.55;3.75;;;;;;;-6.26;82.38;100400.78;5095282;28;20142;-50
2022/12/19 05:25:51;;;;;;;11.98;3.72;;;;;;;-6.36;83.15;100379.28;5083783;28;20693;-50
2022/12/19 05:28:18;;;;;;;7.60;3.85;;;;;;;-6.30;82.62;100414.97;5099932;28;20046;-49
2022/12/19 05:30:44;;;;;;;6.63;3.03;;;;;;;-6.38;82.83;100418.81;5090198;28;20058;-52
2022/12/19 05:33:10;;;;;;;7.57;2.80;;;;;;;-6.28;82.77;100418.41;5070867;28;20046;-53
2022/12/19 05:35:36;;;;;;;9.30;2.78;;;;;;;-6.21;83.00;100417.03;5089481;28;20024;-54
2022/12/19 05:38:03;;;;;;;7.57;2.85;;;;;;;-6.22;82.55;100413.63;5098538;28;20039;-52
2022/12/19 05:40:29;;;;;;;9.07;3.35;;;;;;;-6.16;83.50;100418.97;5087990;28;20042;-49
2022/12/19 05:42:56;;;;;;;9.00;3.13;;;;;;;-6.15;82.98;100425.75;5092905;28;20043;-54
2022/12/19 05:45:22;;;;;;;7.65;3.33;;;;;;;-6.06;83.38;100428.69;5070767;28;20135;-51
2022/12/19 05:47:47;;;;;;;9.88;3.97;;;;;;;-6.01;82.94;100412.03;5077428;28;20486;-48
2022/12/19 05:50:15;;;;;;;10.98;3.55;;;;;;;-6.21;83.04;100379.09;5105377;28;20126;-49
2022/12/19 05:52:41;;;;;;;9.30;3.80;;;;;;;-5.95;83.27;100413.09;5104429;28;20031;-48
2022/12/19 05:55:08;;;;;;;10.65;3.25;;;;;;;-5.95;82.79;100421.56;5098997;28;20088;-52
2022/12/19 05:57:34;;;;;;;8.07;3.50;;;;;;;-6.21;83.12;100356.31;5094186;28;20384;-50
2022/12/19 06:00:02;;;;;;;8.02;3.20;;;;;;;-5.87;83.17;100409.25;5107211;28;20128;-52
2022/12/19 06:02:38;;;;;;;7.63;3.22;;;;;;;-5.82;82.82;100405.22;5085264;28;20085;-54
2022/12/19 06:05:05;;;;;;;9.35;4.30;;;;;;;-5.87;83.04;100406.72;5104420;28;20036;-48
2022/12/19 06:07:31;;;;;;;6.15;1.98;;;;;;;-5.93;82.99;100396.31;5107202;28;20499;-51
2022/12/19 06:09:57;;;;;;;6.32;2.92;;;;;;;-5.80;82.94;100413.72;5093126;28;20043;-51
2022/12/19 06:12:23;;;;;;;8.05;3.22;;;;;;;-5.74;83.29;100426.63;5071384;28;20151;-49
2022/12/19 06:14:48;;;;;;;10.27;3.40;;;;;;;-5.78;82.46;100418.06;5089237;28;20566;-50
2022/12/19 06:17:14;;;;;;;10.60;2.83;;;;;;;-5.81;83.02;100417.91;5090387;28;20047;-51
2022/12/19 06:19:40;;;;;;;12.20;3.13;;;;;;;-5.76;83.03;100425.72;5089979;28;20039;-53
2022/12/19 06:22:06;;;;;;;4.20;2.10;;;;;;;-5.69;83.02;100432.75;5095069;28;20067;-53
2022/12/19 06:24:32;;;;;;;8.60;2.90;;;;;;;-5.64;82.85;100428.75;5059334;28;20130;-48
2022/12/19 06:26:58;;;;;;;6.03;2.28;;;;;;;-5.60;82.84;100440.78;5102098;28;20051;-48
2022/12/19 06:29:24;;;;;;;10.48;3.58;;;;;;;-5.68;82.76;100435.38;5092848;28;20100;-49
2022/12/19 06:31:49;;;;;;;5.38;2.25;;;;;;;-5.67;82.79;100426.09;5082248;28;20055;-51
2022/12/19 06:34:15;;;;;;;5.60;2.17;;;;;;;-5.52;82.73;100433.47;5113468;28;20062;-50
2022/12/19 06:36:41;;;;;;;8.38;3.40;;;;;;;-5.56;82.46;100432.50;5113264;28;20039;-49
2022/12/19 06:39:13;;;;;;;10.10;2.80;;;;;;;-5.95;82.59;100367.53;5092594;28;20040;-48
2022/12/19 06:44:24;;;;;;;6.93;3.30;;;;;;;-5.42;82.59;100413.66;5085042;28;20040;-47
2022/12/19 06:46:52;;;;;;;6.68;2.97;;;;;;;-5.43;82.71;100434.72;5067648;28;20050;-42
2022/12/19 06:49:18;;;;;;;9.15;3.55;;;;;;;-5.35;82.06;100433.38;5085542;28;20035;-48
2022/12/19 06:51:45;;;;;;;8.20;3.45;;;;;;;-5.31;81.86;100436.88;5101628;28;20504;-44
2022/12/19 06:54:11;;;;;;;4.90;2.60;;;;;;;-5.42;82.02;100422.91;5101786;28;20071;-50
2022/12/19 06:56:39;;;;;;;6.72;3.33;;;;;;;-5.28;82.25;100416.72;5093315;28;20050;-49
2022/12/19 06:59:06;;;;;;;10.35;3.15;;;;;;;-5.74;81.92;100343.94;5094278;28;20048;-54
2022/12/19 07:01:32;;;;;;;6.97;3.28;;;;;;;-5.26;82.44;100402.47;5100349;28;20063;-51
2022/12/19 07:03:58;;;;;;;7.65;2.72;;;;;;;-5.30;81.61;100386.28;5090464;28;20684;-50
2022/12/19 07:06:24;;;;;;;10.30;3.75;;;;;;;-5.34;82.08;100389.47;5091938;28;20087;-51
2022/12/19 07:08:50;;;;;;;6.80;3.08;;;;;;;-5.24;81.63;100403.41;5091980;28;20104;-49
2022/12/19 07:11:15;;;;;;;8.95;2.78;;;;;;;-5.29;81.87;100394.75;5092070;28;20043;-50
2022/12/19 07:13:41;;;;;;;6.53;3.20;;;;;;;-5.23;81.93;100402.56;5111035;28;20066;-48
2022/12/19 07:16:08;;;;;;;6.75;2.47;;;;;;;-5.20;81.82;100400.19;5101998;28;20408;-51
2022/12/19 07:18:37;;;;;;;10.18;3.40;;;;;;;-5.03;82.25;100400.84;5094124;28;20081;-51
2022/12/19 07:21:07;;;;;;;9.60;3.90;;;;;;;-4.93;81.63;100418.16;5112472;27;20043;-49
2022/12/19 07:23:34;;;;;;;6.47;3.63;;;;;;;-4.98;81.71;100402.75;5094188;28;20127;-52
2022/12/19 07:26:00;;;;;;;7.70;2.55;;;;;;;-4.91;81.85;100421.59;5109575;28;20040;-47
2022/12/19 07:28:26;;;;;;;8.40;3.40;;;;;;;-4.91;81.96;100419.91;5092804;28;20046;-49
2022/12/19 07:30:52;;;;;;;9.65;2.88;;;;;;;-4.88;81.65;100426.78;5090138;28;20044;-51
2022/12/19 07:33:18;;;;;;;7.88;2.85;;;;;;;-4.94;81.31;100432.50;5089760;28;20823;-49
2022/12/19 07:35:43;;;;;;;7.57;3.10;;;;;;;-4.92;81.88;100418.19;5090273;28;20051;-50
2022/12/19 07:38:09;;;;;;;7.43;3.35;;;;;;;-4.83;81.24;100422.75;5106741;28;20043;-50
2022/12/19 07:40:35;;;;;;;6.90;2.75;;;;;;;-4.88;81.58;100421.72;5107257;28;20503;-49
2022/12/19 07:43:02;;;;;;;7.82;3.38;;;;;;;-4.85;81.68;100424.38;5104599;28;20039;-53
2022/12/19 07:45:29;;;;;;;7.05;3.38;;;;;;;-4.74;81.97;100416.38;5071313;28;20085;-52
2022/12/19 07:47:55;;;;;;;8.60;3.35;;;;;;;-4.77;81.66;100418.81;5091903;28;20040;-50
2022/12/19 07:50:21;;;;;;;4.32;2.13;;;;;;;-4.82;82.44;100422.84;5104511;28;20043;-52
2022/12/19 07:52:47;;;;;;;6.30;3.28;;;;;;;-4.80;81.85;100433.88;5100303;28;20117;-51
2022/12/19 07:55:13;;;;;;;8.98;3.47;;;;;;;-4.77;82.38;100413.72;5089992;28;20048;-51
2022/12/19 07:57:39;;;;;;;6.20;3.25;;;;;;;-4.70;82.23;100407.19;5089891;28;20139;-49
2022/12/19 08:00:05;;;;;;;6.30;3.00;;;;;;;-4.66;81.68;100408.19;5089940;28;20151;-51
2022/12/19 08:02:38;;;;;;;7.30;3.28;;;;;;;-4.99;82.06;100354.53;5095511;28;20047;-52
2022/12/19 08:05:04;;;;;;;16.00;4.57;;;;;;;-4.83;82.06;100379.66;5108400;28;20035;-49
2022/12/19 08:07:31;;;;;;;6.68;2.83;;;;;;;-4.52;81.90;100415.50;5091581;28;20050;-46
2022/12/19 08:09:57;;;;;;;9.82;3.85;;;;;;;-4.80;81.89;100360.34;5071650;28;20043;-48
2022/12/19 08:12:23;;;;;;;6.55;2.40;;;;;;;-4.49;81.85;100422.34;5069604;28;20048;-48
2022/12/19 08:14:48;;;;;;;5.65;3.00;;;;;;;-4.46;82.34;100422.50;5086570;28;20059;-49
2022/12/19 08:17:14;;;;;;;8.05;2.95;;;;;;;-4.46;82.11;100407.25;5094015;28;20514;-48
2022/12/19 08:19:40;;;;;;;11.18;3.38;;;;;;;-4.39;81.88;100416.81;5096019;28;20047;-50
2022/12/19 08:22:06;;;;;;;5.95;2.92;;;;;;;-4.59;82.18;100380.56;5090562;28;20050;-50
2022/12/19 08:24:32;;;;;;;7.70;3.25;;;;;;;-4.35;82.05;100418.69;5090558;28;20088;-48
2022/12/19 08:26:58;;;;;;;10.77;3.30;;;;;;;-4.33;82.32;100414.50;5095936;28;20039;-50
2022/12/19 08:29:24;;;;;;;8.07;3.47;;;;;;;-4.28;82.26;100407.91;5089178;28;20051;-54
2022/12/19 08:31:50;;;;;;;10.48;3.70;;;;;;;-4.16;82.38;100407.50;5052706;28;20048;-48
2022/12/19 08:34:16;;;;;;;15.85;4.28;;;;;;;-4.34;82.08;100377.25;5089875;28;20536;-51
2022/12/19 08:36:41;;;;;;;4.05;2.50;;;;;;;-4.14;81.87;100406.78;5097796;28;20177;-52
2022/12/19 08:39:07;;;;;;;10.98;4.20;;;;;;;-4.18;82.05;100394.75;5090220;28;20123;-52
2022/12/19 08:41:33;;;;;;;10.75;2.95;;;;;;;-4.05;82.56;100391.84;5089052;28;20036;-50
2022/12/19 08:44:00;;;;;;;12.80;4.35;;;;;;;-3.86;81.92;100391.66;5088659;28;20055;-52
2022/12/19 08:46:26;;;;;;;8.68;3.25;;;;;;;-3.71;81.76;100398.94;5090220;28;20044;-51
2022/12/19 08:48:52;;;;;;;10.55;4.45;;;;;;;-3.72;81.37;100392.16;5090296;28;20244;-53
2022/12/19 08:51:18;;;;;;;7.22;3.22;;;;;;;-3.70;81.66;100400.69;5090199;28;20036;-49
2022/12/19 08:53:45;;;;;;;9.05;3.78;;;;;;;-3.75;82.03;100404.75;5109016;28;20054;-51
2022/12/19 08:56:15;;;;;;;11.75;4.93;;;;;;;-3.75;81.26;100407.28;5104931;28;20039;-52
2022/12/19 08:58:41;;;;;;;9.40;4.50;;;;;;;-3.73;81.58;100398.03;5106388;28;20149;-50
2022/12/19 09:01:12;;;;;;;7.07;3.25;;;;;;;-3.83;81.30;100398.53;5109400;28;20044;-50
2022/12/19 09:03:38;;;;;;;9.63;3.83;;;;;;;-3.91;81.52;100400.81;5091137;28;20035;-48
2022/12/19 09:06:07;;;;;;;9.20;3.55;;;;;;;-3.91;81.61;100399.94;5105517;28;20511;-49
2022/12/19 09:08:34;;;;;;;8.77;3.35;;;;;;;-3.90;82.09;100389.84;5039013;28;20040;-52
2022/12/19 09:11:03;;;;;;;8.15;3.83;;;;;;;-3.85;81.75;100395.94;5089178;28;20044;-49
2022/12/19 09:13:30;;;;;;;7.95;3.70;;;;;;;-3.79;82.01;100394.41;5105365;28;20047;-52
2022/12/19 09:16:17;;;;;;;10.45;4.18;;;;;;;-3.67;81.79;100393.19;5109598;28;20039;-51
2022/12/19 09:18:45;;;;;;;6.80;3.13;;;;;;;-3.65;82.01;100381.38;5122414;27;20032;-51
2022/12/19 09:21:12;;;;;;;6.15;2.58;;;;;;;-3.60;81.80;100387.47;5071684;28;20040;-55
2022/12/19 09:23:40;;;;;;;6.20;3.38;;;;;;;-3.52;81.44;100393.69;5089697;28;20503;-53
2022/12/19 09:26:08;;;;;;;9.85;3.40;;;;;;;-3.57;81.38;100390.13;5089298;28;20036;-52
2022/12/19 09:28:35;;;;;;;10.27;4.15;;;;;;;-3.61;81.81;100383.19;5104285;28;20059;-46
2022/12/19 09:31:06;;;;;;;11.20;4.07;;;;;;;-3.49;81.72;100390.38;5089168;28;20040;-53
2022/12/19 09:33:34;;;;;;;6.55;2.95;;;;;;;-3.64;81.52;100362.78;5086948;28;20055;-52
2022/12/19 09:36:01;;;;;;;8.25;3.22;;;;;;;-3.53;81.76;100386.88;5089545;28;20036;-55
2022/12/19 09:38:28;;;;;;;12.00;4.22;;;;;;;-3.68;81.83;100368.56;5089377;28;20070;-53
2022/12/19 09:40:57;;;;;;;9.20;4.22;;;;;;;-3.44;81.71;100393.91;5088539;28;20570;-55
2022/12/19 09:43:36;;;;;;;6.43;2.72;;;;;;;-3.39;81.70;100391.53;5094984;28;20101;-53
2022/12/19 09:46:41;;;;;;;6.13;2.38;;;;;;;-3.47;81.62;100393.84;5088654;28;20038;-53
2022/12/19 09:49:18;;;;;;;9.35;4.32;;;;;;;-3.47;82.47;100399.78;5092408;28;20131;-50
2022/12/19 09:52:11;;;;;;;7.72;3.25;;;;;;;-3.37;82.23;100393.31;5105635;28;20081;-51
2022/12/19 09:54:40;;;;;;;10.90;4.05;;;;;;;-3.36;82.21;100396.72;5085070;28;20060;-51
2022/12/19 09:57:14;;;;;;;8.55;3.83;;;;;;;-3.24;82.28;100403.06;5071915;28;20537;-50
2022/12/19 09:59:44;;;;;;;9.50;4.47;;;;;;;-3.26;82.29;100393.66;5087894;28;20052;-51
2022/12/19 10:02:40;;;;;;;11.57;4.35;;;;;;;-3.18;82.52;100390.53;5087978;28;20039;-49
2022/12/19 10:05:25;;;;;;;9.52;3.88;;;;;;;-3.16;82.50;100391.47;5089251;28;20040;-50
2022/12/19 10:07:52;;;;;;;9.48;4.18;;;;;;;-3.51;82.30;100320.84;5070934;28;20513;-52
2022/12/19 10:10:26;;;;;;;8.68;3.33;;;;;;;-3.05;82.52;100391.81;5087999;28;20476;-48
2022/12/19 10:13:25;;;;;;;12.30;4.68;;;;;;;-3.01;82.16;100399.56;5096727;28;20040;-50
2022/12/19 10:15:56;;;;;;;9.27;3.50;;;;;;;-2.98;82.30;100388.63;5109679;28;20032;-52
2022/12/19 10:18:44;;;;;;;8.13;3.88;;;;;;;-2.96;82.40;100396.31;5101868;28;20084;-52
2022/12/19 10:21:39;;;;;;;9.63;4.35;;;;;;;-2.98;82.76;100388.63;5100891;28;20043;-50
2022/12/19 10:24:15;;;;;;;18.08;3.55;;;;;;;-3.02;82.79;100392.75;5059751;28;20229;-50
2022/12/19 10:26:41;;;;;;;7.63;3.20;;;;;;;-2.96;82.91;100381.91;5083744;28;20039;-53
2022/12/19 10:29:30;;;;;;;10.02;4.13;;;;;;;-2.90;82.98;100384.63;5090034;28;20145;-50
2022/12/19 10:32:21;;;;;;;10.50;4.60;;;;;;;-2.84;82.99;100374.66;5060585;28;20052;-51
2022/12/19 10:34:47;;;;;;;11.88;4.22;;;;;;;-2.70;82.95;100387.78;5068917;28;20393;-53
2022/12/19 10:37:24;;;;;;;8.50;3.47;;;;;;;-2.71;82.33;100384.38;5092002;28;20047;-49
2022/12/19 10:40:04;;;;;;;8.05;3.40;;;;;;;-2.87;82.58;100361.81;5069555;28;20040;-48
2022/12/19 10:42:45;;;;;;;7.65;3.30;;;;;;;-2.82;82.69;100384.84;5099148;28;20042;-51
2022/12/19 10:45:18;;;;;;;9.88;4.35;;;;;;;-2.82;83.13;100392.50;5053673;28;20036;-51
2022/12/19 10:47:46;;;;;;;7.80;3.28;;;;;;;-2.73;83.09;100388.56;5099120;28;20047;-52
2022/12/19 10:50:16;;;;;;;11.57;4.50;;;;;;;-3.14;82.72;100335.56;5088834;28;20040;-50
2022/12/19 10:52:55;;;;;;;12.02;4.55;;;;;;;-2.69;82.70;100394.59;5087438;28;20365;-53
2022/12/19 10:55:36;;;;;;;12.25;4.78;;;;;;;-2.61;82.62;100390.59;5087680;28;20422;-52
2022/12/19 10:58:21;;;;;;;10.05;4.53;;;;;;;-2.61;82.64;100395.69;5089339;28;20048;-49
2022/12/19 11:00:53;;;;;;;13.27;3.75;;;;;;;-2.69;82.65;100389.50;5087004;28;20134;-51
2022/12/19 11:03:19;;;;;;;10.98;4.22;;;;;;;-2.69;82.88;100402.22;5087837;28;20047;-51
2022/12/19 11:05:50;;;;;;;11.32;4.38;;;;;;;-2.66;83.23;100395.53;5088722;28;20044;-51
2022/12/19 11:08:29;;;;;;;9.98;4.35;;;;;;;-2.53;82.91;100394.25;5087448;28;20075;-51
2022/12/19 11:11:05;;;;;;;7.18;3.40;;;;;;;-2.49;82.72;100393.50;5093986;28;20036;-52
2022/12/19 11:13:41;;;;;;;14.30;3.70;;;;;;;-2.47;82.88;100403.75;5095186;28;20054;-49
2022/12/19 11:16:07;;;;;;;13.30;4.60;;;;;;;-2.50;82.91;100399.41;5092447;28;20047;-55
2022/12/19 11:18:39;;;;;;;8.40;2.78;;;;;;;-2.62;83.07;100373.63;5090840;28;20046;-50
2022/12/19 11:21:27;;;;;;;15.40;4.78;;;;;;;-2.45;82.99;100402.94;5101722;28;20040;-48
2022/12/19 11:24:01;;;;;;;8.65;3.47;;;;;;;-2.41;82.68;100397.16;5073960;28;20044;-49
2022/12/19 11:26:32;;;;;;;7.45;3.08;;;;;;;-2.46;82.59;100403.75;5091967;28;20511;-48
2022/12/19 11:29:03;;;;;;;11.20;4.72;;;;;;;-2.50;83.14;100413.81;5071529;28;20496;-50
2022/12/19 11:31:28;;;;;;;10.35;4.65;;;;;;;-2.46;83.14;100410.56;5086865;28;20085;-50
2022/12/19 11:34:02;;;;;;;15.05;5.03;;;;;;;-2.41;83.30;100406.47;5090602;28;20044;-51
2022/12/19 11:37:17;;;;;;;12.48;5.28;;;;;;;-2.35;83.35;100420.22;5089827;28;20058;-47
2022/12/19 11:39:50;;;;;;;13.77;4.00;;;;;;;-2.40;83.12;100410.72;5042838;28;20044;-52
2022/12/19 11:42:31;;;;;;;10.50;4.40;;;;;;;-2.40;83.34;100418.34;5078138;28;20039;-49